Corumbaiba, Brazil
Current Conditions -  °F | °C
As of 1:00 PM on Monday 24 Nov 2014 (Local Time) from SBUL Reporting Station
Rain Showers Rain Showers  
Wind Chill: 77°   Ceiling: Unl
Heat Index: 79°   Visibility: 6mi
Dew Point: 66°   Wind: 10mph
Humidity: 69%   Direction: 330°NNW
Pressure: 30.06"   Gusts: NA
Location:  18.14°S, 48.56°W
Report Text: SBUL 241500Z 33009KT 9999 VCSH SCT020 FEW025TCU 25/19 Q1018
Loading
Personal Weather Stations






























Interactive Weather Map New forecast layout! Learn more

10-Day Weather Forecast

Advertisements
Track Severe Weather on mobile